createdAt,value
2022-08-02T00:01:50.386Z,41.04
2022-08-02T00:04:20.429Z,41.63
2022-08-02T00:06:48.974Z,40.84
2022-08-02T00:09:17.677Z,41.91
2022-08-02T00:11:50.098Z,42.15
2022-08-02T00:14:18.629Z,42.28
2022-08-02T00:16:47.257Z,41.91
2022-08-02T00:19:15.706Z,41.98
2022-08-02T00:21:46.025Z,41.92
2022-08-02T00:24:28.861Z,41.54
2022-08-02T00:26:58.289Z,41.95
2022-08-02T00:29:26.632Z,42.55
2022-08-02T00:31:55.286Z,41.57
2022-08-02T00:34:29.961Z,41.73
2022-08-02T00:37:01.236Z,41.88
2022-08-02T00:39:34.835Z,41.79
2022-08-02T00:42:04.207Z,42.04
2022-08-02T00:44:33.181Z,41.71
2022-08-02T00:47:01.742Z,42.05
2022-08-02T00:49:30.458Z,41.92
2022-08-02T00:52:00.467Z,41.86
2022-08-02T00:54:29.059Z,41.60
2022-08-02T00:56:57.481Z,41.69
2022-08-02T00:59:26.181Z,41.05
2022-08-02T01:01:58.137Z,41.28
2022-08-02T01:04:31.134Z,41.33
2022-08-02T01:07:04.306Z,41.41
2022-08-02T01:09:41.867Z,40.97
2022-08-02T01:12:11.480Z,41.05
2022-08-02T01:14:40.719Z,40.81
2022-08-02T01:17:11.934Z,41.40
2022-08-02T01:19:45.139Z,41.02
2022-08-02T01:22:59.559Z,40.97
2022-08-02T01:25:29.565Z,41.02
2022-08-02T01:28:16.784Z,40.46
2022-08-02T01:30:46.465Z,40.48
2022-08-02T01:33:18.349Z,40.83
2022-08-02T01:35:51.113Z,41.08
2022-08-02T01:38:23.995Z,41.14
2022-08-02T01:40:54.344Z,41.60
2022-08-02T01:43:26.630Z,41.74
2022-08-02T01:45:56.911Z,41.89
2022-08-02T01:48:28.338Z,41.95
2022-08-02T01:50:57.212Z,41.79
2022-08-02T01:53:27.330Z,42.12
2022-08-02T01:55:57.698Z,42.17
2022-08-02T01:58:30.273Z,42.04
2022-08-02T02:01:00.043Z,42.59
2022-08-02T02:03:30.785Z,43.17
2022-08-02T02:06:03.586Z,43.06
2022-08-02T02:08:38.095Z,43.02
2022-08-02T02:12:05.990Z,42.80
2022-08-02T02:13:59.805Z,42.42
2022-08-02T02:16:29.124Z,43.22
2022-08-02T02:18:58.782Z,42.90
2022-08-02T02:21:27.236Z,43.91
2022-08-02T02:23:55.783Z,43.77
2022-08-02T02:26:29.601Z,43.67
2022-08-02T02:29:03.326Z,43.42
2022-08-02T02:31:34.164Z,42.86
2022-08-02T02:34:04.405Z,43.31
2022-08-02T02:36:34.860Z,43.42
2022-08-02T02:39:04.682Z,42.53
2022-08-02T02:41:42.632Z,42.84
2022-08-02T02:44:14.797Z,43.01
2022-08-02T02:46:43.498Z,42.91
2022-08-02T02:49:12.732Z,43.27
2022-08-02T02:51:41.681Z,42.86
2022-08-02T02:54:30.196Z,42.66
2022-08-02T02:56:59.788Z,42.58
2022-08-02T02:59:29.933Z,42.40
2022-08-02T03:01:59.115Z,42.55
2022-08-02T03:04:35.988Z,42.55
2022-08-02T03:07:18.113Z,42.78
2022-08-02T03:09:54.110Z,42.77
2022-08-02T03:12:30.958Z,42.48
2022-08-02T03:15:02.386Z,42.41
2022-08-02T03:17:42.269Z,42.59
2022-08-02T03:20:12.551Z,42.43
2022-08-02T03:22:41.619Z,43.23
2022-08-02T03:25:10.966Z,43.36
2022-08-02T03:27:40.771Z,42.93
2022-08-02T03:30:12.097Z,42.38
2022-08-02T03:32:41.478Z,42.39
2022-08-02T03:35:11.923Z,42.19
2022-08-02T03:37:40.680Z,42.25
2022-08-02T03:40:10.256Z,42.00
2022-08-02T03:42:40.376Z,42.18
2022-08-02T03:45:12.810Z,42.49
2022-08-02T03:47:42.019Z,41.91
2022-08-02T03:50:13.066Z,42.38
2022-08-02T03:52:43.161Z,42.29
2022-08-02T03:55:12.885Z,42.13
2022-08-02T03:57:42.216Z,42.05
2022-08-02T04:00:13.660Z,42.14
2022-08-02T04:02:42.661Z,41.74
2022-08-02T04:05:12.437Z,42.12
2022-08-02T04:08:33.042Z,41.63
2022-08-02T04:10:29.698Z,41.25
2022-08-02T04:12:57.980Z,41.58
2022-08-02T04:15:27.951Z,41.68
2022-08-02T04:17:58.195Z,41.72
2022-08-02T04:20:30.140Z,41.33
2022-08-02T04:23:01.957Z,41.29
2022-08-02T04:25:35.623Z,40.81
2022-08-02T04:28:17.079Z,40.55
2022-08-02T04:30:49.674Z,40.38
2022-08-02T04:33:18.597Z,40.40
2022-08-02T04:35:47.453Z,40.16
2022-08-02T04:38:16.183Z,39.93
2022-08-02T04:40:52.127Z,39.45
2022-08-02T04:43:21.741Z,39.54
2022-08-02T04:45:54.016Z,39.89
2022-08-02T04:48:23.154Z,39.53
2022-08-02T04:50:51.859Z,39.49
2022-08-02T04:53:20.545Z,39.13
2022-08-02T04:55:49.280Z,39.27
2022-08-02T04:58:39.332Z,39.29
2022-08-02T05:01:09.217Z,39.41
2022-08-02T05:03:38.058Z,39.50
2022-08-02T05:06:19.005Z,39.82
2022-08-02T05:08:52.365Z,39.68
2022-08-02T05:11:25.711Z,39.58
2022-08-02T05:14:05.964Z,40.35
2022-08-02T05:16:36.036Z,39.32
2022-08-02T05:19:04.534Z,38.74
2022-08-02T05:21:33.263Z,38.96
2022-08-02T05:24:01.737Z,38.88
2022-08-02T05:26:30.599Z,39.18
2022-08-02T05:29:00.404Z,39.00
2022-08-02T05:31:29.045Z,39.33
2022-08-02T05:33:59.127Z,39.37
2022-08-02T05:36:27.980Z,39.19
2022-08-02T05:39:05.153Z,38.76
2022-08-02T05:41:34.282Z,38.56
2022-08-02T05:44:03.337Z,38.77
2022-08-02T05:46:32.481Z,37.63
2022-08-02T05:49:04.618Z,37.16
2022-08-02T05:51:37.580Z,36.74
2022-08-02T05:54:12.399Z,36.62
2022-08-02T05:56:46.921Z,36.56
2022-08-02T05:59:19.403Z,36.53
2022-08-02T06:01:50.097Z,36.21
2022-08-02T06:04:31.570Z,36.11
2022-08-02T06:07:03.066Z,36.07
2022-08-02T06:09:32.613Z,35.75
2022-08-02T06:12:02.274Z,36.05
2022-08-02T06:14:33.532Z,36.60
2022-08-02T06:17:03.707Z,36.99
2022-08-02T06:19:47.054Z,36.85
2022-08-02T06:22:37.633Z,36.64
2022-08-02T06:25:11.764Z,36.22
2022-08-02T06:27:56.627Z,35.22
2022-08-02T06:30:25.328Z,34.80
2022-08-02T06:32:54.499Z,34.26
2022-08-02T06:35:26.671Z,34.40
2022-08-02T06:38:00.883Z,35.00
2022-08-02T06:40:32.557Z,34.29
2022-08-02T06:43:08.436Z,34.12
2022-08-02T06:45:38.263Z,33.88
2022-08-02T06:48:07.412Z,33.93
2022-08-02T06:50:38.983Z,33.35
2022-08-02T06:53:07.896Z,33.31
2022-08-02T06:55:43.322Z,32.40
2022-08-02T06:58:14.071Z,32.04
2022-08-02T07:00:43.784Z,31.93
2022-08-02T07:03:12.567Z,31.93
2022-08-02T07:05:45.909Z,31.83
2022-08-02T07:08:14.791Z,30.71
2022-08-02T07:10:43.509Z,30.06
2022-08-02T07:13:12.172Z,29.69
2022-08-02T07:15:45.826Z,29.41
2022-08-02T07:18:18.407Z,29.90
2022-08-02T07:20:48.777Z,29.36
2022-08-02T07:23:17.353Z,28.94
2022-08-02T07:26:03.438Z,27.74
2022-08-02T07:28:34.007Z,27.78
2022-08-02T07:31:02.843Z,27.88
2022-08-02T07:33:37.868Z,27.01
2022-08-02T07:36:16.607Z,26.73
2022-08-02T07:38:47.817Z,26.20
2022-08-02T07:41:16.504Z,27.03
2022-08-02T07:43:45.562Z,26.91
2022-08-02T07:46:14.353Z,25.83
2022-08-02T07:48:42.947Z,25.05
2022-08-02T07:51:17.223Z,24.59
2022-08-02T07:53:49.824Z,24.27
2022-08-02T07:56:19.145Z,23.95
2022-08-02T07:58:47.871Z,23.94
2022-08-02T08:01:16.581Z,24.25
2022-08-02T08:03:45.352Z,24.70
2022-08-02T08:06:15.664Z,24.63
2022-08-02T08:08:45.445Z,24.90
2022-08-02T08:11:14.515Z,23.53
2022-08-02T08:13:43.163Z,24.23
2022-08-02T08:16:11.823Z,25.20
2022-08-02T08:18:40.763Z,26.36
2022-08-02T08:21:10.424Z,26.94
2022-08-02T08:23:40.577Z,27.39
2022-08-02T08:26:11.715Z,26.20
2022-08-02T08:28:46.742Z,25.85
2022-08-02T08:31:15.340Z,26.58
2022-08-02T08:33:44.048Z,26.43
2022-08-02T08:36:12.706Z,26.80
2022-08-02T08:38:42.920Z,27.93
2022-08-02T08:41:12.742Z,27.48
2022-08-02T08:43:41.386Z,27.52
2022-08-02T08:46:12.420Z,27.84
2022-08-02T08:48:43.504Z,28.25
2022-08-02T08:51:13.497Z,29.10
2022-08-02T08:53:44.428Z,27.07
2022-08-02T08:56:16.603Z,23.42
2022-08-02T08:58:46.297Z,21.39
2022-08-02T09:01:15.655Z,20.73
2022-08-02T09:03:44.709Z,20.58
2022-08-02T09:06:13.394Z,21.70
2022-08-02T09:08:43.687Z,23.11
2022-08-02T09:11:14.233Z,24.21
2022-08-02T09:13:50.718Z,24.43
2022-08-02T09:16:28.901Z,22.71
2022-08-02T09:18:57.821Z,22.71
2022-08-02T09:21:35.271Z,23.56
2022-08-02T09:24:17.357Z,23.94
2022-08-02T09:26:46.407Z,21.46
2022-08-02T09:29:16.503Z,20.73
2022-08-02T09:31:49.861Z,18.47
2022-08-02T09:34:20.390Z,18.11
2022-08-02T09:36:54.751Z,16.72
2022-08-02T09:39:26.813Z,17.41
2022-08-02T09:42:10.991Z,20.24
2022-08-02T09:44:40.209Z,21.10
2022-08-02T09:47:16.709Z,22.11
2022-08-02T09:49:52.507Z,22.53
2022-08-02T09:52:37.350Z,22.19
2022-08-02T09:55:14.584Z,22.32
2022-08-02T09:57:44.358Z,21.47
2022-08-02T10:00:37.227Z,19.80
2022-08-02T10:03:21.608Z,20.25
2022-08-02T10:05:56.150Z,22.15
2022-08-02T10:08:32.982Z,23.79
2022-08-02T10:11:04.198Z,24.97
2022-08-02T10:13:33.943Z,25.57
2022-08-02T10:16:03.851Z,26.36
2022-08-02T10:18:41.250Z,26.31
2022-08-02T10:21:13.671Z,26.33
2022-08-02T10:23:44.331Z,25.98
2022-08-02T10:26:19.437Z,22.77
2022-08-02T10:28:52.294Z,19.47
2022-08-02T10:31:23.950Z,18.01
2022-08-02T10:33:54.355Z,16.98
2022-08-02T10:36:27.394Z,16.51
2022-08-02T10:38:58.902Z,15.61
2022-08-02T10:41:45.049Z,16.11
2022-08-02T10:44:27.501Z,16.43
2022-08-02T10:47:15.082Z,16.72
2022-08-02T10:50:07.156Z,15.80
2022-08-02T10:52:36.153Z,15.71
2022-08-02T10:55:13.320Z,17.40
2022-08-02T10:57:48.796Z,17.80
2022-08-02T11:00:28.008Z,18.87
2022-08-02T11:02:57.704Z,19.91
2022-08-02T11:05:42.647Z,21.04
2022-08-02T11:08:20.235Z,22.16
2022-08-02T11:10:49.338Z,22.70
2022-08-02T11:13:19.946Z,19.77
2022-08-02T11:16:01.656Z,19.05
2022-08-02T11:19:06.741Z,17.75
2022-08-02T11:21:37.216Z,15.64
2022-08-02T11:24:27.117Z,15.14
2022-08-02T11:26:56.531Z,14.79
2022-08-02T11:29:38.664Z,15.22
2022-08-02T11:32:08.126Z,17.51
2022-08-02T11:34:38.344Z,17.62
2022-08-02T11:37:08.647Z,17.84
2022-08-02T11:39:38.051Z,19.12
2022-08-02T11:42:06.956Z,18.95
2022-08-02T11:44:43.405Z,18.17
2022-08-02T11:47:12.968Z,17.74
2022-08-02T11:49:43.106Z,17.61
2022-08-02T11:52:12.706Z,16.73
2022-08-02T11:54:42.846Z,15.66
2022-08-02T11:57:19.851Z,16.11
2022-08-02T11:59:52.408Z,15.97
2022-08-02T12:02:22.810Z,15.90
2022-08-02T12:04:57.391Z,16.41
2022-08-02T12:07:30.428Z,15.94
2022-08-02T12:10:04.753Z,14.62
2022-08-02T12:12:33.951Z,14.90
2022-08-02T12:15:04.402Z,17.05
2022-08-02T12:17:50.804Z,19.17
2022-08-02T12:20:20.499Z,21.47
2022-08-02T12:22:49.527Z,20.99
2022-08-02T12:25:34.568Z,20.34
2022-08-02T12:28:18.213Z,18.75
2022-08-02T12:30:53.870Z,18.17
2022-08-02T12:33:22.970Z,17.77
2022-08-02T12:35:52.118Z,18.74
2022-08-02T12:38:20.853Z,19.32
2022-08-02T12:40:49.383Z,19.09
2022-08-02T12:43:19.897Z,18.98
2022-08-02T12:45:50.822Z,20.08
2022-08-02T12:48:37.443Z,18.96
2022-08-02T12:51:55.790Z,18.41
2022-08-02T12:54:17.745Z,20.04
2022-08-02T12:56:47.323Z,19.89
2022-08-02T12:59:16.331Z,19.71
2022-08-02T13:01:46.029Z,19.83
2022-08-02T13:04:18.765Z,21.17
2022-08-02T13:06:47.715Z,22.48
2022-08-02T13:09:17.825Z,22.60
2022-08-02T13:11:47.163Z,24.34
2022-08-02T13:14:16.399Z,23.75
2022-08-02T13:16:46.611Z,24.85
2022-08-02T13:19:17.792Z,24.99
2022-08-02T13:22:01.979Z,24.58
2022-08-02T13:24:38.589Z,24.09
2022-08-02T13:27:10.331Z,23.58
2022-08-02T13:29:39.226Z,23.03
2022-08-02T13:32:08.084Z,23.70
2022-08-02T13:34:37.417Z,23.86
2022-08-02T13:37:07.488Z,23.58
2022-08-02T13:39:36.864Z,24.35
2022-08-02T13:42:06.049Z,24.08
2022-08-02T13:44:35.402Z,23.80
2022-08-02T13:47:05.007Z,24.24
2022-08-02T13:49:51.290Z,25.05
2022-08-02T13:52:22.312Z,24.58
2022-08-02T13:54:52.037Z,24.89
2022-08-02T13:57:21.121Z,25.47
2022-08-02T13:59:58.314Z,24.65
2022-08-02T14:02:29.234Z,24.73
2022-08-02T14:04:58.366Z,24.68
2022-08-02T14:07:28.614Z,24.28
2022-08-02T14:09:57.516Z,24.26
2022-08-02T14:12:27.227Z,24.45
2022-08-02T14:14:56.292Z,24.34
2022-08-02T14:17:25.227Z,24.77
2022-08-02T14:19:53.846Z,25.48
2022-08-02T14:22:23.073Z,25.73
2022-08-02T14:24:57.422Z,25.76
2022-08-02T14:27:26.079Z,25.52
2022-08-02T14:29:55.164Z,25.74
2022-08-02T14:32:31.956Z,25.65
2022-08-02T14:35:01.869Z,24.87
2022-08-02T14:37:32.987Z,24.94
2022-08-02T14:40:03.170Z,25.07
2022-08-02T14:42:32.796Z,25.15
2022-08-02T14:45:02.863Z,25.22
2022-08-02T14:47:34.077Z,24.98
2022-08-02T14:50:03.467Z,24.58
2022-08-02T14:52:33.416Z,25.17
2022-08-02T14:55:05.719Z,25.04
2022-08-02T14:57:34.484Z,25.58
2022-08-02T15:00:03.316Z,25.89
2022-08-02T15:02:32.903Z,25.60
2022-08-02T15:05:01.742Z,24.73
2022-08-02T15:07:32.062Z,25.17
2022-08-02T15:10:00.987Z,25.90
2022-08-02T15:12:31.491Z,25.73
2022-08-02T15:15:00.794Z,25.76
2022-08-02T15:17:29.749Z,25.99
2022-08-02T15:20:02.015Z,26.08
2022-08-02T15:22:37.863Z,26.64
2022-08-02T15:25:06.940Z,26.33
2022-08-02T15:27:46.022Z,26.83
2022-08-02T15:30:14.876Z,26.16
2022-08-02T15:32:53.094Z,26.16
2022-08-02T15:35:22.564Z,25.79
2022-08-02T15:37:51.571Z,25.51
2022-08-02T15:40:20.571Z,25.53
2022-08-02T15:42:50.820Z,25.35
2022-08-02T15:45:20.038Z,25.41
2022-08-02T15:47:50.639Z,25.47
2022-08-02T15:50:19.697Z,25.89
2022-08-02T15:52:49.363Z,26.06
2022-08-02T15:55:18.267Z,25.99
2022-08-02T15:57:47.247Z,26.10
2022-08-02T16:00:18.925Z,26.06
2022-08-02T16:02:48.241Z,26.51
2022-08-02T16:05:18.429Z,26.06
2022-08-02T16:07:47.737Z,26.49
2022-08-02T16:10:17.269Z,26.65
2022-08-02T16:12:46.743Z,26.81
2022-08-02T16:15:17.141Z,26.63
2022-08-02T16:17:49.062Z,27.42
2022-08-02T16:20:24.179Z,27.47
2022-08-02T16:22:53.270Z,27.75
2022-08-02T16:25:23.065Z,27.82
2022-08-02T16:28:05.978Z,27.70
2022-08-02T16:30:37.873Z,27.89
2022-08-02T16:33:07.019Z,27.53
2022-08-02T16:35:36.223Z,27.63
2022-08-02T16:38:08.129Z,27.79
2022-08-02T16:40:36.994Z,27.62
2022-08-02T16:43:09.172Z,27.56
2022-08-02T16:45:39.761Z,27.40
2022-08-02T16:48:13.645Z,27.69
2022-08-02T16:50:46.351Z,28.42
2022-08-02T16:53:36.591Z,28.76
2022-08-02T16:56:06.054Z,28.76
2022-08-02T16:58:35.105Z,28.64
2022-08-02T17:01:15.542Z,28.65
2022-08-02T17:03:56.918Z,28.75
2022-08-02T17:06:27.764Z,28.63
2022-08-02T17:08:58.436Z,29.05
2022-08-02T17:11:31.076Z,28.87
2022-08-02T17:14:00.088Z,29.36
2022-08-02T17:16:30.803Z,29.20
2022-08-02T17:19:00.510Z,29.54
2022-08-02T17:21:29.790Z,29.74
2022-08-02T17:24:05.358Z,29.96
2022-08-02T17:26:38.406Z,29.85
2022-08-02T17:29:15.185Z,29.98
2022-08-02T17:32:05.130Z,29.95
2022-08-02T17:34:38.098Z,30.17
2022-08-02T17:37:08.213Z,30.19
2022-08-02T17:39:44.056Z,30.23
2022-08-02T17:42:23.228Z,30.03
2022-08-02T17:44:53.277Z,30.25
2022-08-02T17:47:30.948Z,30.51
2022-08-02T17:50:00.686Z,30.63
2022-08-02T17:52:50.635Z,30.86
2022-08-02T17:55:22.005Z,31.12
2022-08-02T17:57:55.528Z,31.14
2022-08-02T18:00:27.566Z,32.22
2022-08-02T18:02:57.615Z,31.70
2022-08-02T18:05:39.701Z,31.77
2022-08-02T18:08:18.346Z,31.86
2022-08-02T18:10:51.535Z,31.92
2022-08-02T18:13:21.213Z,31.83
2022-08-02T18:15:57.364Z,31.75
2022-08-02T18:18:30.456Z,32.29
2022-08-02T18:21:15.751Z,31.93
2022-08-02T18:23:58.822Z,31.78
2022-08-02T18:26:28.834Z,32.13
2022-08-02T18:28:57.606Z,31.89
2022-08-02T18:31:27.280Z,31.96
2022-08-02T18:34:02.328Z,32.02
2022-08-02T18:36:32.713Z,32.25
2022-08-02T18:39:08.254Z,32.36
2022-08-02T18:41:37.953Z,32.25
2022-08-02T18:44:07.412Z,32.49
2022-08-02T18:46:36.186Z,32.46
2022-08-02T18:49:13.463Z,32.98
2022-08-02T18:51:44.385Z,32.67
2022-08-02T18:54:13.528Z,32.94
2022-08-02T18:56:47.168Z,32.87
2022-08-02T18:59:16.815Z,33.04
2022-08-02T19:01:50.918Z,32.97
2022-08-02T19:04:27.853Z,33.03
2022-08-02T19:07:06.982Z,33.20
2022-08-02T19:09:39.821Z,33.11
2022-08-02T19:12:11.531Z,32.78
2022-08-02T19:14:40.629Z,33.17
2022-08-02T19:17:16.075Z,33.41
2022-08-02T19:20:00.509Z,33.99
2022-08-02T19:22:33.041Z,33.76
2022-08-02T19:25:02.361Z,34.09
2022-08-02T19:27:34.491Z,33.28
2022-08-02T19:30:04.031Z,34.01
2022-08-02T19:32:42.790Z,33.71
2022-08-02T19:35:29.936Z,33.71
2022-08-02T19:38:07.595Z,33.42
2022-08-02T19:40:38.020Z,33.51
2022-08-02T19:44:26.075Z,33.73
2022-08-02T19:45:57.094Z,33.80
2022-08-02T19:48:27.282Z,33.23
2022-08-02T19:51:01.108Z,33.17
2022-08-02T19:53:48.620Z,33.52
2022-08-02T19:56:25.173Z,33.64
2022-08-02T19:58:57.024Z,33.49
2022-08-02T20:01:37.016Z,33.56
2022-08-02T20:04:13.386Z,33.50
2022-08-02T20:06:47.654Z,33.27
2022-08-02T20:09:21.335Z,33.20
2022-08-02T20:11:54.578Z,33.13
2022-08-02T20:14:26.867Z,32.99
2022-08-02T20:16:57.288Z,32.97
2022-08-02T20:19:29.551Z,33.45
2022-08-02T20:22:00.818Z,33.26
2022-08-02T20:24:30.531Z,32.85
2022-08-02T20:26:59.745Z,33.07
2022-08-02T20:29:43.257Z,33.07
2022-08-02T20:32:23.416Z,33.11
2022-08-02T20:34:53.661Z,32.92
2022-08-02T20:38:00.674Z,33.03
2022-08-02T20:40:16.521Z,32.86
2022-08-02T20:42:47.517Z,32.99
2022-08-02T20:45:17.085Z,32.95
2022-08-02T20:47:50.710Z,33.32
2022-08-02T20:50:37.193Z,33.42
2022-08-02T20:53:08.200Z,33.70
2022-08-02T20:55:53.875Z,33.51
2022-08-02T20:58:26.885Z,34.43
2022-08-02T21:00:59.678Z,34.25
2022-08-02T21:03:39.121Z,33.83
2022-08-02T21:06:17.659Z,34.38
2022-08-02T21:08:51.691Z,35.05
2022-08-02T21:11:20.695Z,35.16
2022-08-02T21:14:06.353Z,35.06
2022-08-02T21:16:37.752Z,35.60
2022-08-02T21:19:09.654Z,35.08
2022-08-02T21:21:39.387Z,35.40
2022-08-02T21:24:12.363Z,35.45
2022-08-02T21:26:41.207Z,36.22
2022-08-02T21:29:13.554Z,35.97
2022-08-02T21:31:43.463Z,36.10
2022-08-02T21:34:26.855Z,35.94
2022-08-02T21:36:56.155Z,35.77
2022-08-02T21:39:26.485Z,35.70
2022-08-02T21:41:55.506Z,35.82
2022-08-02T21:44:24.417Z,36.48
2022-08-02T21:46:54.119Z,35.91
2022-08-02T21:49:27.418Z,35.96
2022-08-02T21:52:10.289Z,35.70
2022-08-02T21:54:41.046Z,35.92
2022-08-02T21:57:15.756Z,35.96
2022-08-02T21:59:46.268Z,35.72
2022-08-02T22:02:15.547Z,35.92
2022-08-02T22:04:47.888Z,36.09
2022-08-02T22:07:23.881Z,36.12
2022-08-02T22:09:55.438Z,35.96
2022-08-02T22:12:26.442Z,36.24
2022-08-02T22:14:56.499Z,36.55
2022-08-02T22:17:51.453Z,36.13
2022-08-02T22:20:20.123Z,36.58
2022-08-02T22:22:50.511Z,36.62
2022-08-02T22:25:31.496Z,37.34
2022-08-02T22:28:36.379Z,37.49
2022-08-02T22:30:56.837Z,37.35
2022-08-02T22:33:59.852Z,36.89
2022-08-02T22:36:29.690Z,37.29
2022-08-02T22:38:58.533Z,37.36
2022-08-02T22:42:02.205Z,37.37
2022-08-02T22:44:18.793Z,37.49
2022-08-02T22:46:50.397Z,37.90
2022-08-02T22:49:38.025Z,37.56
2022-08-02T22:52:10.579Z,37.73
2022-08-02T22:54:39.459Z,38.24
2022-08-02T22:57:11.069Z,38.35
2022-08-02T22:59:41.269Z,37.84
2022-08-02T23:02:10.377Z,38.37
2022-08-02T23:04:39.291Z,38.29
2022-08-02T23:07:07.944Z,38.40
2022-08-02T23:09:36.497Z,38.48
2022-08-02T23:12:05.567Z,38.46
2022-08-02T23:14:35.793Z,38.22
2022-08-02T23:17:21.463Z,38.11
2022-08-02T23:19:52.883Z,38.82
2022-08-02T23:22:29.219Z,38.79
2022-08-02T23:25:01.494Z,39.12
2022-08-02T23:27:32.486Z,39.05
2022-08-02T23:30:02.897Z,38.87
2022-08-02T23:32:33.232Z,39.41
2022-08-02T23:35:01.782Z,39.81
2022-08-02T23:37:57.991Z,39.40
2022-08-02T23:40:39.006Z,39.63
2022-08-02T23:43:14.033Z,39.44
2022-08-02T23:45:46.695Z,39.56
2022-08-02T23:48:15.408Z,39.36
2022-08-02T23:50:44.037Z,39.23
2022-08-02T23:53:12.722Z,39.79
2022-08-02T23:55:41.315Z,39.54
2022-08-02T23:58:09.943Z,39.47
